Overview Statistics Trail Chart Weather Telemetry Raw packets
 

This is the latest recevied weather packets stored in our database for station/object OE3CJB-13. If no packets are shown the sender has not sent any weather packets the latest 10 day(s).

<< 30 31 32 33 34 35 36 >>
Time Temp. Humidity Pressure Rain* Wind** Luminosity Snow
1787997651 20° C 65% 1173.3 hPa 0 mm - - -
1787996766 20.56° C 64% 1173.3 hPa 0 mm - - -
1787995818 21.11° C 61% 1173.9 hPa 0 mm - - -
1787994965 21.11° C 61% 1174.6 hPa 0 mm - - -
1787994045 21.11° C 60% 1174.6 hPa 0 mm - - -
1787993130 20.56° C 60% 1175.2 hPa 0 mm - - -
1787992218 21.11° C 59% 1174.6 hPa 0 mm - - -
1787991355 21.67° C 58% 1173.5 hPa 0 mm - - -
1787990445 21.11° C 59% 1173.3 hPa 0 mm - - -
1787989565 20.56° C 62% 1173.3 hPa 0 mm - - -
1787988618 20° C 69% 1172.4 hPa 0 mm - - -
1787987765 19.44° C 71% 1172.6 hPa 0 mm - - -
1787986868 18.89° C 74% 1171.8 hPa 0 mm - - -
1787985964 18.33° C 76% 1171.6 hPa 0 mm - - -
1787985018 18.33° C 79% 1170.1 hPa 0 mm - - -
1787984155 17.78° C 80% 1168.5 hPa 0 mm - - -
1787983245 17.22° C 82% 1168.3 hPa 0 mm - - -
1787982331 17.22° C 82% 1169 hPa 0 mm - - -
1787981418 17.22° C 83% 1169 hPa 0 mm - - -
1787980554 17.22° C 83% 1170.6 hPa 0 mm - - -
1787979644 17.22° C 84% 1169 hPa 0 mm - - -
1787978730 17.22° C 84% 1169 hPa 0 mm - - -
1787977818 17.22° C 84% 1170.6 hPa 0 mm - - -
1787976955 17.22° C 84% 1170.5 hPa 0 mm - - -
1787976045 17.22° C 84% 1170.5 hPa 0 mm - - -

* Rain latest hour (hover to see other rain measurements)
** Current wind speed in m/s (hover to see current wind gust speed)